sensor_id;sensor_type;location;lat;lon;timestamp;pressure;altitude;pressure_sealevel;temperature;humidity
31299;BME280;17927;52.350;13.402;2023-03-16T00:00:35;101709.59;;;4.96;49.76
31299;BME280;17927;52.350;13.402;2023-03-16T00:03:01;101712.44;;;4.93;49.67
31299;BME280;17927;52.350;13.402;2023-03-16T00:05:26;101715.19;;;4.91;49.85
31299;BME280;17927;52.350;13.402;2023-03-16T00:07:51;101716.25;;;4.88;49.72
31299;BME280;17927;52.350;13.402;2023-03-16T00:10:17;101719.06;;;4.85;49.63
31299;BME280;17927;52.350;13.402;2023-03-16T00:12:42;101720.19;;;4.81;50.01
31299;BME280;17927;52.350;13.402;2023-03-16T00:15:12;101714.13;;;4.78;50.08
31299;BME280;17927;52.350;13.402;2023-03-16T00:17:38;101720.50;;;4.75;50.00
31299;BME280;17927;52.350;13.402;2023-03-16T00:20:03;101722.31;;;4.75;50.09
31299;BME280;17927;52.350;13.402;2023-03-16T00:22:31;101723.28;;;4.73;50.02
31299;BME280;17927;52.350;13.402;2023-03-16T00:24:57;101720.75;;;4.70;50.05
31299;BME280;17927;52.350;13.402;2023-03-16T00:27:23;101724.31;;;4.71;50.24
31299;BME280;17927;52.350;13.402;2023-03-16T00:29:50;101729.81;;;4.68;50.08
31299;BME280;17927;52.350;13.402;2023-03-16T00:32:22;101718.41;;;4.64;50.39
31299;BME280;17927;52.350;13.402;2023-03-16T00:34:48;101730.13;;;4.62;50.48
31299;BME280;17927;52.350;13.402;2023-03-16T00:37:15;101730.22;;;4.60;50.25
31299;BME280;17927;52.350;13.402;2023-03-16T00:39:42;101731.25;;;4.57;50.61
31299;BME280;17927;52.350;13.402;2023-03-16T00:42:12;101733.13;;;4.55;50.53
31299;BME280;17927;52.350;13.402;2023-03-16T00:44:39;101739.59;;;4.51;50.69
31299;BME280;17927;52.350;13.402;2023-03-16T00:47:06;101740.44;;;4.52;50.65
31299;BME280;17927;52.350;13.402;2023-03-16T00:49:32;101740.53;;;4.50;50.75
31299;BME280;17927;52.350;13.402;2023-03-16T00:52:00;101734.38;;;4.48;50.55
31299;BME280;17927;52.350;13.402;2023-03-16T00:54:26;101744.31;;;4.46;50.60
31299;BME280;17927;52.350;13.402;2023-03-16T00:56:51;101733.69;;;4.45;50.59
31299;BME280;17927;52.350;13.402;2023-03-16T00:59:16;101743.69;;;4.41;50.76
31299;BME280;17927;52.350;13.402;2023-03-16T01:01:44;101742.09;;;4.37;50.71
31299;BME280;17927;52.350;13.402;2023-03-16T01:04:11;101738.56;;;4.36;50.88
31299;BME280;17927;52.350;13.402;2023-03-16T01:06:36;101744.94;;;4.34;50.83
31299;BME280;17927;52.350;13.402;2023-03-16T01:09:01;101745.03;;;4.32;50.90
31299;BME280;17927;52.350;13.402;2023-03-16T01:11:29;101745.03;;;4.32;50.74
31299;BME280;17927;52.350;13.402;2023-03-16T01:13:58;101745.03;;;4.32;50.87
31299;BME280;17927;52.350;13.402;2023-03-16T01:16:23;101740.69;;;4.30;50.76
31299;BME280;17927;52.350;13.402;2023-03-16T01:18:49;101741.56;;;4.30;50.91
31299;BME280;17927;52.350;13.402;2023-03-16T01:21:16;101746.81;;;4.32;50.95
31299;BME280;17927;52.350;13.402;2023-03-16T01:23:41;101738.78;;;4.32;50.83
31299;BME280;17927;52.350;13.402;2023-03-16T01:26:08;101736.22;;;4.30;50.82
31299;BME280;17927;52.350;13.402;2023-03-16T01:28:34;101746.03;;;4.30;50.77
31299;BME280;17927;52.350;13.402;2023-03-16T01:31:02;101736.34;;;4.27;50.95
31299;BME280;17927;52.350;13.402;2023-03-16T01:33:28;101741.84;;;4.24;50.79
31299;BME280;17927;52.350;13.402;2023-03-16T01:35:59;101736.59;;;4.22;51.18
31299;BME280;17927;52.350;13.402;2023-03-16T01:38:25;101736.66;;;4.21;50.99
31299;BME280;17927;52.350;13.402;2023-03-16T01:40:51;101737.53;;;4.21;51.09
31299;BME280;17927;52.350;13.402;2023-03-16T01:43:19;101739.28;;;4.22;51.00
31299;BME280;17927;52.350;13.402;2023-03-16T01:48:29;101741.06;;;4.22;50.86
31299;BME280;17927;52.350;13.402;2023-03-16T01:51:02;101736.66;;;4.21;50.88
31299;BME280;17927;52.350;13.402;2023-03-16T01:53:28;101741.06;;;4.22;50.82
31299;BME280;17927;52.350;13.402;2023-03-16T01:55:53;101744.63;;;4.22;50.93
31299;BME280;17927;52.350;13.402;2023-03-16T01:58:19;101740.13;;;4.23;50.92
31299;BME280;17927;52.350;13.402;2023-03-16T02:00:45;101744.63;;;4.22;50.75
31299;BME280;17927;52.350;13.402;2023-03-16T02:03:14;101739.41;;;4.19;50.57
31299;BME280;17927;52.350;13.402;2023-03-16T02:05:48;101743.03;;;4.18;50.34
31299;BME280;17927;52.350;13.402;2023-03-16T02:08:15;101740.44;;;4.17;50.50
31299;BME280;17927;52.350;13.402;2023-03-16T02:10:42;101738.78;;;4.14;50.42
31299;BME280;17927;52.350;13.402;2023-03-16T02:13:09;101734.59;;;4.08;50.44
31299;BME280;17927;52.350;13.402;2023-03-16T02:15:35;101724.00;;;4.07;50.48
31299;BME280;17927;52.350;13.402;2023-03-16T02:18:01;101726.81;;;4.04;50.65
31299;BME280;17927;52.350;13.402;2023-03-16T02:20:40;101728.69;;;4.02;50.87
31299;BME280;17927;52.350;13.402;2023-03-16T02:23:08;101723.50;;;3.99;50.96
31299;BME280;17927;52.350;13.402;2023-03-16T02:25:49;101720.06;;;3.96;50.96
31299;BME280;17927;52.350;13.402;2023-03-16T02:30:59;101729.09;;;3.94;50.99
31299;BME280;17927;52.350;13.402;2023-03-16T02:33:27;101729.09;;;3.94;51.01
31299;BME280;17927;52.350;13.402;2023-03-16T02:35:54;101727.28;;;3.94;51.00
31299;BME280;17927;52.350;13.402;2023-03-16T02:38:19;101725.47;;;3.95;51.02
31299;BME280;17927;52.350;13.402;2023-03-16T02:40:54;101730.09;;;3.91;51.18
31299;BME280;17927;52.350;13.402;2023-03-16T02:43:25;101729.47;;;3.86;50.98
31299;BME280;17927;52.350;13.402;2023-03-16T02:45:54;101728.75;;;3.83;51.24
31299;BME280;17927;52.350;13.402;2023-03-16T02:48:37;101731.28;;;3.86;51.27
31299;BME280;17927;52.350;13.402;2023-03-16T02:51:07;101733.16;;;3.84;51.14
31299;BME280;17927;52.350;13.402;2023-03-16T02:53:32;101734.81;;;3.86;51.21
31299;BME280;17927;52.350;13.402;2023-03-16T02:55:57;101732.94;;;3.88;51.08
31299;BME280;17927;52.350;13.402;2023-03-16T02:58:23;101742.78;;;3.88;51.26
31299;BME280;17927;52.350;13.402;2023-03-16T03:00:48;101740.09;;;3.88;51.24
31299;BME280;17927;52.350;13.402;2023-03-16T03:03:13;101748.19;;;3.86;51.22
31299;BME280;17927;52.350;13.402;2023-03-16T03:05:38;101750.00;;;3.86;51.00
31299;BME280;17927;52.350;13.402;2023-03-16T03:08:04;101742.97;;;3.83;51.05
31299;BME280;17927;52.350;13.402;2023-03-16T03:10:29;101748.50;;;3.80;51.24
31299;BME280;17927;52.350;13.402;2023-03-16T03:12:55;101746.81;;;3.77;51.18
31299;BME280;17927;52.350;13.402;2023-03-16T03:15:21;101745.16;;;3.75;51.17
31299;BME280;17927;52.350;13.402;2023-03-16T03:17:47;101760.25;;;3.76;50.89
31299;BME280;17927;52.350;13.402;2023-03-16T03:20:12;101760.25;;;3.76;51.09
31299;BME280;17927;52.350;13.402;2023-03-16T03:22:41;101762.22;;;3.72;51.04
31299;BME280;17927;52.350;13.402;2023-03-16T03:25:06;101763.22;;;3.70;51.05
31299;BME280;17927;52.350;13.402;2023-03-16T03:27:33;101765.09;;;3.68;50.91
31299;BME280;17927;52.350;13.402;2023-03-16T03:29:58;101755.44;;;3.65;50.94
31299;BME280;17927;52.350;13.402;2023-03-16T03:32:23;101761.78;;;3.62;50.84
31299;BME280;17927;52.350;13.402;2023-03-16T03:34:49;101760.13;;;3.60;50.67
31299;BME280;17927;52.350;13.402;2023-03-16T03:37:14;101765.53;;;3.58;50.93
31299;BME280;17927;52.350;13.402;2023-03-16T03:39:39;101763.91;;;3.56;50.86
31299;BME280;17927;52.350;13.402;2023-03-16T03:42:05;101761.38;;;3.53;50.65
31299;BME280;17927;52.350;13.402;2023-03-16T03:44:30;101765.06;;;3.50;50.72
31299;BME280;17927;52.350;13.402;2023-03-16T03:46:58;101767.78;;;3.48;51.01
31299;BME280;17927;52.350;13.402;2023-03-16T03:49:24;101763.50;;;3.44;51.00
31299;BME280;17927;52.350;13.402;2023-03-16T03:51:49;101766.34;;;3.41;51.23
31299;BME280;17927;52.350;13.402;2023-03-16T03:54:15;101764.63;;;3.40;51.35
31299;BME280;17927;52.350;13.402;2023-03-16T03:56:41;101763.72;;;3.40;51.44
31299;BME280;17927;52.350;13.402;2023-03-16T03:59:06;101763.81;;;3.38;51.53
31299;BME280;17927;52.350;13.402;2023-03-16T04:01:31;101762.09;;;3.37;51.61
31299;BME280;17927;52.350;13.402;2023-03-16T04:03:56;101763.81;;;3.38;51.62
31299;BME280;17927;52.350;13.402;2023-03-16T04:06:22;101764.66;;;3.39;51.61
31299;BME280;17927;52.350;13.402;2023-03-16T04:08:47;101755.72;;;3.40;51.49
31299;BME280;17927;52.350;13.402;2023-03-16T04:11:13;101769.03;;;3.41;51.52
31299;BME280;17927;52.350;13.402;2023-03-16T04:13:38;101762.81;;;3.41;51.61
31299;BME280;17927;52.350;13.402;2023-03-16T04:16:04;101767.28;;;3.40;51.48
31299;BME280;17927;52.350;13.402;2023-03-16T04:18:30;101768.22;;;3.39;51.53
31299;BME280;17927;52.350;13.402;2023-03-16T04:21:04;101769.22;;;3.37;51.84
31299;BME280;17927;52.350;13.402;2023-03-16T04:23:29;101758.63;;;3.35;51.54
31299;BME280;17927;52.350;13.402;2023-03-16T04:25:57;101766.63;;;3.35;51.56
31299;BME280;17927;52.350;13.402;2023-03-16T04:28:22;101768.50;;;3.33;51.45
31299;BME280;17927;52.350;13.402;2023-03-16T04:30:50;101771.16;;;3.33;51.65
31299;BME280;17927;52.350;13.402;2023-03-16T04:33:18;101764.97;;;3.32;51.51
31299;BME280;17927;52.350;13.402;2023-03-16T04:35:43;101765.03;;;3.31;51.57
31299;BME280;17927;52.350;13.402;2023-03-16T04:38:10;101768.59;;;3.31;51.39
31299;BME280;17927;52.350;13.402;2023-03-16T04:40:36;101769.44;;;3.32;51.62
31299;BME280;17927;52.350;13.402;2023-03-16T04:43:01;101781.00;;;3.32;51.40
31299;BME280;17927;52.350;13.402;2023-03-16T04:45:27;101777.53;;;3.30;51.30
31299;BME280;17927;52.350;13.402;2023-03-16T04:47:52;101780.19;;;3.30;51.28
31299;BME280;17927;52.350;13.402;2023-03-16T04:50:17;101779.41;;;3.28;51.12
31299;BME280;17927;52.350;13.402;2023-03-16T04:52:42;101781.41;;;3.23;51.25
31299;BME280;17927;52.350;13.402;2023-03-16T04:55:08;101783.28;;;3.21;51.15
31299;BME280;17927;52.350;13.402;2023-03-16T04:57:33;101780.78;;;3.18;51.15
31299;BME280;17927;52.350;13.402;2023-03-16T05:00:01;101776.38;;;3.17;50.93
31299;BME280;17927;52.350;13.402;2023-03-16T05:02:26;101788.84;;;3.16;51.01
31299;BME280;17927;52.350;13.402;2023-03-16T05:04:51;101786.25;;;3.15;50.92
31299;BME280;17927;52.350;13.402;2023-03-16T05:07:17;101786.16;;;3.16;50.90
31299;BME280;17927;52.350;13.402;2023-03-16T05:09:43;101788.78;;;3.18;50.69
31299;BME280;17927;52.350;13.402;2023-03-16T05:12:08;101795.84;;;3.19;50.67
31299;BME280;17927;52.350;13.402;2023-03-16T05:14:34;101787.75;;;3.20;50.65
31299;BME280;17927;52.350;13.402;2023-03-16T05:17:02;101793.19;;;3.19;50.76
31299;BME280;17927;52.350;13.402;2023-03-16T05:19:28;101786.88;;;3.20;50.57
31299;BME280;17927;52.350;13.402;2023-03-16T05:21:54;101789.53;;;3.20;50.51
31299;BME280;17927;52.350;13.402;2023-03-16T05:24:21;101795.84;;;3.19;50.58
31299;BME280;17927;52.350;13.402;2023-03-16T05:26:47;101796.84;;;3.16;50.49
31299;BME280;17927;52.350;13.402;2023-03-16T05:29:12;101799.59;;;3.15;50.56
31299;BME280;17927;52.350;13.402;2023-03-16T05:31:37;101805.78;;;3.15;50.42
31299;BME280;17927;52.350;13.402;2023-03-16T05:34:02;101805.78;;;3.15;50.64
31299;BME280;17927;52.350;13.402;2023-03-16T05:36:28;101803.13;;;3.15;50.49
31299;BME280;17927;52.350;13.402;2023-03-16T05:38:53;101800.44;;;3.15;50.55
31299;BME280;17927;52.350;13.402;2023-03-16T05:41:18;101807.53;;;3.16;50.51
31299;BME280;17927;52.350;13.402;2023-03-16T05:43:45;101802.97;;;3.18;50.56
31299;BME280;17927;52.350;13.402;2023-03-16T05:46:10;101809.13;;;3.20;50.82
31299;BME280;17927;52.350;13.402;2023-03-16T05:48:36;101803.53;;;3.27;50.85
31299;BME280;17927;52.350;13.402;2023-03-16T05:51:01;101812.13;;;3.33;51.04
31299;BME280;17927;52.350;13.402;2023-03-16T05:53:30;101809.16;;;3.40;51.19
31299;BME280;17927;52.350;13.402;2023-03-16T05:55:55;101812.19;;;3.51;51.23
31299;BME280;17927;52.350;13.402;2023-03-16T05:58:20;101814.44;;;3.60;51.37
31299;BME280;17927;52.350;13.402;2023-03-16T06:00:46;101807.00;;;3.67;51.32
31299;BME280;17927;52.350;13.402;2023-03-16T06:03:11;101812.06;;;3.73;51.35
31299;BME280;17927;52.350;13.402;2023-03-16T06:05:37;101817.09;;;3.79;51.32
31299;BME280;17927;52.350;13.402;2023-03-16T06:08:02;101810.53;;;3.87;51.51
31299;BME280;17927;52.350;13.402;2023-03-16T06:10:27;101820.13;;;3.91;51.52
31299;BME280;17927;52.350;13.402;2023-03-16T06:12:52;101814.50;;;3.97;51.53
31299;BME280;17927;52.350;13.402;2023-03-16T06:15:18;101817.81;;;4.02;51.70
31299;BME280;17927;52.350;13.402;2023-03-16T06:17:43;101813.03;;;4.09;51.85
31299;BME280;17927;52.350;13.402;2023-03-16T06:20:11;101814.41;;;4.18;51.84
31299;BME280;17927;52.350;13.402;2023-03-16T06:22:38;101821.97;;;4.27;51.97
31299;BME280;17927;52.350;13.402;2023-03-16T06:25:04;101818.13;;;4.33;51.80
31299;BME280;17927;52.350;13.402;2023-03-16T06:27:29;101821.19;;;4.42;51.96
31299;BME280;17927;52.350;13.402;2023-03-16T06:29:55;101825.22;;;4.51;52.00
31299;BME280;17927;52.350;13.402;2023-03-16T06:32:20;101825.53;;;4.63;52.03
31299;BME280;17927;52.350;13.402;2023-03-16T06:34:46;101830.34;;;4.73;51.90
31299;BME280;17927;52.350;13.402;2023-03-16T06:37:11;101824.44;;;4.84;51.96
31299;BME280;17927;52.350;13.402;2023-03-16T06:39:37;101829.25;;;4.95;51.78
31299;BME280;17927;52.350;13.402;2023-03-16T06:42:02;101836.69;;;5.06;51.91
31299;BME280;17927;52.350;13.402;2023-03-16T06:44:29;101843.22;;;5.18;51.83
31299;BME280;17927;52.350;13.402;2023-03-16T06:46:54;101840.00;;;5.29;51.76
31299;BME280;17927;52.350;13.402;2023-03-16T06:49:19;101847.63;;;5.37;51.61
31299;BME280;17927;52.350;13.402;2023-03-16T06:51:45;101838.31;;;5.44;51.57
31299;BME280;17927;52.350;13.402;2023-03-16T06:54:10;101847.66;;;5.53;51.59
31299;BME280;17927;52.350;13.402;2023-03-16T06:56:35;101849.94;;;5.60;51.46
31299;BME280;17927;52.350;13.402;2023-03-16T06:59:01;101850.38;;;5.69;51.45
31299;BME280;17927;52.350;13.402;2023-03-16T07:01:26;101848.91;;;5.79;51.47
31299;BME280;17927;52.350;13.402;2023-03-16T07:03:51;101855.50;;;5.89;51.34
31299;BME280;17927;52.350;13.402;2023-03-16T07:06:16;101863.91;;;5.99;51.36
31299;BME280;17927;52.350;13.402;2023-03-16T07:08:42;101863.41;;;6.08;51.42
31299;BME280;17927;52.350;13.402;2023-03-16T07:11:08;101869.97;;;6.19;51.35
31299;BME280;17927;52.350;13.402;2023-03-16T07:13:33;101870.41;;;6.27;51.66
31299;BME280;17927;52.350;13.402;2023-03-16T07:16:00;101867.97;;;6.38;51.30
31299;BME280;17927;52.350;13.402;2023-03-16T07:18:25;101877.44;;;6.46;51.23
31299;BME280;17927;52.350;13.402;2023-03-16T07:20:52;101876.00;;;6.54;51.20
31299;BME280;17927;52.350;13.402;2023-03-16T07:23:17;101878.16;;;6.64;51.15
31299;BME280;17927;52.350;13.402;2023-03-16T07:25:42;101870.59;;;6.70;51.18
31299;BME280;17927;52.350;13.402;2023-03-16T07:28:08;101877.09;;;6.82;50.89
31299;BME280;17927;52.350;13.402;2023-03-16T07:30:33;101875.66;;;6.91;51.33
31299;BME280;17927;52.350;13.402;2023-03-16T07:32:59;101879.53;;;7.01;51.15
31299;BME280;17927;52.350;13.402;2023-03-16T07:35:25;101876.03;;;7.15;51.10
31299;BME280;17927;52.350;13.402;2023-03-16T07:37:50;101886.00;;;7.28;51.01
31299;BME280;17927;52.350;13.402;2023-03-16T07:40:16;101886.22;;;7.39;50.86
31299;BME280;17927;52.350;13.402;2023-03-16T07:42:42;101893.63;;;7.50;50.61
31299;BME280;17927;52.350;13.402;2023-03-16T07:45:08;101891.41;;;7.57;50.13
31299;BME280;17927;52.350;13.402;2023-03-16T07:47:34;101906.88;;;7.68;50.29
31299;BME280;17927;52.350;13.402;2023-03-16T07:50:00;101900.81;;;7.78;50.29
31299;BME280;17927;52.350;13.402;2023-03-16T07:52:25;101895.72;;;7.88;50.19
31299;BME280;17927;52.350;13.402;2023-03-16T07:54:50;101898.88;;;7.95;49.79
31299;BME280;17927;52.350;13.402;2023-03-16T07:57:16;101901.19;;;8.01;49.65
31299;BME280;17927;52.350;13.402;2023-03-16T07:59:41;101902.44;;;8.10;49.77
31299;BME280;17927;52.350;13.402;2023-03-16T08:02:15;101898.47;;;8.16;49.52
31299;BME280;17927;52.350;13.402;2023-03-16T08:04:40;101897.41;;;8.18;49.59
31299;BME280;17927;52.350;13.402;2023-03-16T08:07:13;101892.59;;;8.23;49.46
31299;BME280;17927;52.350;13.402;2023-03-16T08:09:39;101896.63;;;8.31;49.83
31299;BME280;17927;52.350;13.402;2023-03-16T08:12:07;101898.81;;;8.38;49.41
31299;BME280;17927;52.350;13.402;2023-03-16T08:14:32;101901.97;;;8.45;49.50
31299;BME280;17927;52.350;13.402;2023-03-16T08:16:58;101909.56;;;8.53;49.22
31299;BME280;17927;52.350;13.402;2023-03-16T08:19:23;101903.75;;;8.59;48.99
31299;BME280;17927;52.350;13.402;2023-03-16T08:21:49;101907.88;;;8.65;49.01
31299;BME280;17927;52.350;13.402;2023-03-16T08:24:15;101898.63;;;8.69;48.84
31299;BME280;17927;52.350;13.402;2023-03-16T08:26:40;101905.53;;;8.73;48.76
31299;BME280;17927;52.350;13.402;2023-03-16T08:29:05;101903.50;;;8.77;48.48
31299;BME280;17927;52.350;13.402;2023-03-16T08:31:31;101903.19;;;8.81;48.73
31299;BME280;17927;52.350;13.402;2023-03-16T08:33:59;101906.31;;;8.88;48.53
31299;BME280;17927;52.350;13.402;2023-03-16T08:36:24;101909.50;;;8.95;48.45
31299;BME280;17927;52.350;13.402;2023-03-16T08:38:51;101910.91;;;9.01;48.76
31299;BME280;17927;52.350;13.402;2023-03-16T08:41:16;101919.31;;;9.09;48.57
31299;BME280;17927;52.350;13.402;2023-03-16T08:43:41;101913.59;;;9.13;48.51
31299;BME280;17927;52.350;13.402;2023-03-16T08:46:07;101918.72;;;9.18;48.38
31299;BME280;17927;52.350;13.402;2023-03-16T08:48:32;101923.09;;;9.19;48.29
31299;BME280;17927;52.350;13.402;2023-03-16T08:51:02;101915.69;;;9.23;47.79
31299;BME280;17927;52.350;13.402;2023-03-16T08:53:28;101921.94;;;9.23;47.53
31299;BME280;17927;52.350;13.402;2023-03-16T08:56:02;101934.25;;;9.27;47.77
31299;BME280;17927;52.350;13.402;2023-03-16T08:58:29;101933.16;;;9.30;47.69
31299;BME280;17927;52.350;13.402;2023-03-16T09:00:56;101932.84;;;9.35;47.64
31299;BME280;17927;52.350;13.402;2023-03-16T09:03:21;101933.50;;;9.38;47.40
31299;BME280;17927;52.350;13.402;2023-03-16T09:05:46;101931.56;;;9.40;47.52
31299;BME280;17927;52.350;13.402;2023-03-16T09:08:13;101936.63;;;9.45;47.14
31299;BME280;17927;52.350;13.402;2023-03-16T09:10:38;101937.41;;;9.47;47.32
31299;BME280;17927;52.350;13.402;2023-03-16T09:13:03;101933.63;;;9.50;47.24
31299;BME280;17927;52.350;13.402;2023-03-16T09:15:29;101925.09;;;9.56;47.71
31299;BME280;17927;52.350;13.402;2023-03-16T09:17:55;101930.81;;;9.64;47.78
31299;BME280;17927;52.350;13.402;2023-03-16T09:20:22;101935.78;;;9.70;47.27
31299;BME280;17927;52.350;13.402;2023-03-16T09:22:47;101931.88;;;9.74;47.17
31299;BME280;17927;52.350;13.402;2023-03-16T09:25:12;101934.50;;;9.76;46.91
31299;BME280;17927;52.350;13.402;2023-03-16T09:27:38;101934.16;;;9.81;47.06
31299;BME280;17927;52.350;13.402;2023-03-16T09:30:04;101944.63;;;9.85;46.55
31299;BME280;17927;52.350;13.402;2023-03-16T09:32:31;101941.72;;;9.88;46.74
31299;BME280;17927;52.350;13.402;2023-03-16T09:34:57;101938.66;;;9.93;46.38
31299;BME280;17927;52.350;13.402;2023-03-16T09:37:23;101939.31;;;9.97;46.32
31299;BME280;17927;52.350;13.402;2023-03-16T09:39:50;101950.56;;;10.03;46.57
31299;BME280;17927;52.350;13.402;2023-03-16T09:42:23;101955.63;;;10.08;45.75
31299;BME280;17927;52.350;13.402;2023-03-16T09:45:04;101945.44;;;10.12;45.88
31299;BME280;17927;52.350;13.402;2023-03-16T09:47:32;101942.41;;;10.16;46.32
31299;BME280;17927;52.350;13.402;2023-03-16T09:50:03;101943.81;;;10.22;45.95
31299;BME280;17927;52.350;13.402;2023-03-16T09:52:39;101942.28;;;10.31;45.89
31299;BME280;17927;52.350;13.402;2023-03-16T09:55:29;101944.53;;;10.37;45.60
31299;BME280;17927;52.350;13.402;2023-03-16T09:57:57;101952.31;;;10.42;45.22
31299;BME280;17927;52.350;13.402;2023-03-16T10:00:37;101941.94;;;10.48;44.97
31299;BME280;17927;52.350;13.402;2023-03-16T10:03:29;101947.09;;;10.51;44.53
31299;BME280;17927;52.350;13.402;2023-03-16T10:06:02;101949.69;;;10.53;44.54
31299;BME280;17927;52.350;13.402;2023-03-16T10:08:54;101941.00;;;10.61;44.33
31299;BME280;17927;52.350;13.402;2023-03-16T10:11:25;101946.09;;;10.65;44.62
31299;BME280;17927;52.350;13.402;2023-03-16T10:16:53;101944.19;;;10.79;44.08
31299;BME280;17927;52.350;13.402;2023-03-16T10:19:29;101934.75;;;10.85;43.93
31299;BME280;17927;52.350;13.402;2023-03-16T10:21:59;101936.13;;;10.90;44.00
31299;BME280;17927;52.350;13.402;2023-03-16T10:24:42;101932.00;;;10.98;43.95
31299;BME280;17927;52.350;13.402;2023-03-16T10:27:12;101924.34;;;10.91;44.33
31299;BME280;17927;52.350;13.402;2023-03-16T10:29:40;101922.03;;;10.98;43.77
31299;BME280;17927;52.350;13.402;2023-03-16T10:32:17;101926.63;;;11.09;43.47
31299;BME280;17927;52.350;13.402;2023-03-16T10:34:56;101935.13;;;11.16;42.47
31299;BME280;17927;52.350;13.402;2023-03-16T10:37:23;101931.09;;;11.21;42.81
31299;BME280;17927;52.350;13.402;2023-03-16T10:39:49;101925.22;;;11.27;42.66
31299;BME280;17927;52.350;13.402;2023-03-16T10:42:16;101933.72;;;11.34;42.36
31299;BME280;17927;52.350;13.402;2023-03-16T10:44:42;101927.69;;;11.42;42.27
31299;BME280;17927;52.350;13.402;2023-03-16T10:47:23;101925.38;;;11.49;41.87
31299;BME280;17927;52.350;13.402;2023-03-16T10:49:49;101925.97;;;11.52;41.92
31299;BME280;17927;52.350;13.402;2023-03-16T10:52:45;101911.09;;;11.58;40.95
31299;BME280;17927;52.350;13.402;2023-03-16T10:55:31;101922.66;;;11.60;40.54
31299;BME280;17927;52.350;13.402;2023-03-16T10:58:06;101914.31;;;11.63;40.68
31299;BME280;17927;52.350;13.402;2023-03-16T11:00:35;101916.78;;;11.66;39.87
31299;BME280;17927;52.350;13.402;2023-03-16T11:06:17;101918.75;;;11.76;39.30
31299;BME280;17927;52.350;13.402;2023-03-16T11:08:44;101915.66;;;11.80;39.50
31299;BME280;17927;52.350;13.402;2023-03-16T11:11:13;101910.63;;;11.87;39.54
31299;BME280;17927;52.350;13.402;2023-03-16T11:13:45;101911.97;;;11.93;39.38
31299;BME280;17927;52.350;13.402;2023-03-16T11:16:22;101906.94;;;11.99;39.50
31299;BME280;17927;52.350;13.402;2023-03-16T11:18:53;101906.47;;;12.06;39.48
31299;BME280;17927;52.350;13.402;2023-03-16T11:24:19;101901.03;;;12.17;39.67
31299;BME280;17927;52.350;13.402;2023-03-16T11:26:52;101895.72;;;12.27;39.26
31299;BME280;17927;52.350;13.402;2023-03-16T11:29:38;101889.84;;;12.22;40.04
31299;BME280;17927;52.350;13.402;2023-03-16T11:32:11;101889.31;;;12.28;39.14
31299;BME280;17927;52.350;13.402;2023-03-16T11:34:39;101893.84;;;12.39;38.94
31299;BME280;17927;52.350;13.402;2023-03-16T11:37:13;101892.22;;;12.47;38.78
31299;BME280;17927;52.350;13.402;2023-03-16T11:40:47;101895.44;;;12.53;38.34
31299;BME280;17927;52.350;13.402;2023-03-16T11:42:58;101888.88;;;12.55;38.35
31299;BME280;17927;52.350;13.402;2023-03-16T11:45:47;101888.34;;;12.61;38.25
31299;BME280;17927;52.350;13.402;2023-03-16T11:48:42;101880.69;;;12.67;38.19
31299;BME280;17927;52.350;13.402;2023-03-16T11:53:50;101874.97;;;12.81;37.99
31299;BME280;17927;52.350;13.402;2023-03-16T11:56:29;101870.75;;;12.88;38.24
31299;BME280;17927;52.350;13.402;2023-03-16T11:59:06;101865.41;;;12.98;39.18
31299;BME280;17927;52.350;13.402;2023-03-16T12:01:52;101863.78;;;13.17;39.20
31299;BME280;17927;52.350;13.402;2023-03-16T12:04:37;101864.19;;;13.33;38.75
31299;BME280;17927;52.350;13.402;2023-03-16T12:07:35;101865.47;;;13.50;38.59
31299;BME280;17927;52.350;13.402;2023-03-16T12:10:13;101864.09;;;13.66;37.86
31299;BME280;17927;52.350;13.402;2023-03-16T12:13:01;101856.88;;;13.86;37.03
31299;BME280;17927;52.350;13.402;2023-03-16T12:15:40;101859.78;;;14.04;37.40
31299;BME280;17927;52.350;13.402;2023-03-16T12:18:17;101846.81;;;14.27;37.05
31299;BME280;17927;52.350;13.402;2023-03-16T12:20:50;101844.84;;;14.49;36.99
31299;BME280;17927;52.350;13.402;2023-03-16T12:23:20;101841.88;;;14.72;36.76
31299;BME280;17927;52.350;13.402;2023-03-16T12:25:50;101830.13;;;14.91;36.75
31299;BME280;17927;52.350;13.402;2023-03-16T12:28:24;101826.50;;;15.10;35.48
31299;BME280;17927;52.350;13.402;2023-03-16T12:33:47;101834.00;;;15.46;36.07
31299;BME280;17927;52.350;13.402;2023-03-16T12:39:41;101814.56;;;15.96;36.25
31299;BME280;17927;52.350;13.402;2023-03-16T12:42:24;101807.34;;;16.23;35.31
31299;BME280;17927;52.350;13.402;2023-03-16T12:44:56;101803.16;;;16.47;36.02
31299;BME280;17927;52.350;13.402;2023-03-16T12:47:35;101816.69;;;16.75;35.58
31299;BME280;17927;52.350;13.402;2023-03-16T12:50:09;101807.56;;;17.02;36.46
31299;BME280;17927;52.350;13.402;2023-03-16T12:52:40;101803.63;;;17.31;35.64
31299;BME280;17927;52.350;13.402;2023-03-16T12:55:58;101796.44;;;17.57;33.77
31299;BME280;17927;52.350;13.402;2023-03-16T12:58:00;101799.06;;;17.75;34.04
31299;BME280;17927;52.350;13.402;2023-03-16T13:00:36;101779.78;;;17.93;33.93
31299;BME280;17927;52.350;13.402;2023-03-16T13:03:04;101789.97;;;18.17;34.18
31299;BME280;17927;52.350;13.402;2023-03-16T13:05:32;101789.47;;;18.38;32.82
31299;BME280;17927;52.350;13.402;2023-03-16T13:08:10;101775.47;;;18.58;30.83
31299;BME280;17927;52.350;13.402;2023-03-16T13:10:38;101781.63;;;18.68;31.33
31299;BME280;17927;52.350;13.402;2023-03-16T13:13:11;101772.72;;;18.83;30.32
31299;BME280;17927;52.350;13.402;2023-03-16T13:15:39;101766.38;;;18.99;31.56
31299;BME280;17927;52.350;13.402;2023-03-16T13:18:19;101766.69;;;19.21;30.90